Time;durP1;ratioP1;P1;durP2;ratioP2;P2;SDS_P1;SDS_P2;PMS_P1;PMS_P2;Temp;Humidity;BMP_temperature;BMP_pressure;BME280_temperature;BME280_humidity;BME280_pressure;Samples;Min_cycle;Max_cycle;Signal;HPM_P1;HPM_P2
2023/01/04 16:48:55;;;;;;;1.50;1.40;;;10.30;99.90;;;;;;5112341;27;21077;-66
2023/01/04 16:51:23;;;;;;;1.43;1.03;;;10.30;99.90;;;;;;5111618;28;20526;-66
2023/01/04 16:53:49;;;;;;;1.30;1.30;;;10.50;99.90;;;;;;5111364;28;20935;-66
2023/01/04 16:56:19;;;;;;;1.07;0.90;;;10.80;99.90;;;;;;5111908;28;20445;-66
2023/01/04 16:58:47;;;;;;;1.37;1.37;;;11.00;99.90;;;;;;5111350;28;20961;-66
2023/01/04 17:01:15;;;;;;;1.20;0.90;;;11.20;99.90;;;;;;5111385;28;20465;-66
2023/01/04 17:03:43;;;;;;;1.23;0.93;;;11.30;99.90;;;;;;5111495;28;20440;-65
2023/01/04 17:06:15;;;;;;;0.93;0.90;;;11.40;99.90;;;;;;5111481;28;20597;-65
2023/01/04 17:08:41;;;;;;;1.13;0.80;;;11.50;99.90;;;;;;5111407;28;20517;-65
2023/01/04 17:11:10;;;;;;;1.37;1.27;;;11.60;99.90;;;;;;5111612;28;20506;-66
2023/01/04 17:13:36;;;;;;;0.90;0.90;;;11.60;99.90;;;;;;5111570;28;20452;-65
2023/01/04 17:16:04;;;;;;;1.40;1.27;;;11.70;99.90;;;;;;5111374;28;20478;-65
2023/01/04 17:18:33;;;;;;;1.30;1.20;;;11.70;99.90;;;;;;5111778;28;20466;-65
2023/01/04 17:21:01;;;;;;;1.33;1.30;;;11.70;99.90;;;;;;5111425;28;20476;-66
2023/01/04 17:23:31;;;;;;;0.80;0.80;;;11.70;99.90;;;;;;5111132;28;20899;-66
2023/01/04 17:26:02;;;;;;;1.10;1.10;;;11.70;99.90;;;;;;5111175;28;20462;-66
2023/01/04 17:28:28;;;;;;;0.90;0.90;;;11.70;99.90;;;;;;5111134;28;20858;-65
2023/01/04 17:30:55;;;;;;;0.77;0.77;;;11.60;99.90;;;;;;5110831;28;20468;-65
2023/01/04 17:33:22;;;;;;;1.40;0.87;;;11.70;99.90;;;;;;5111116;28;20478;-65
2023/01/04 17:35:49;;;;;;;1.80;1.10;;;11.70;99.90;;;;;;5111024;28;20517;-65
2023/01/04 17:38:16;;;;;;;2.87;2.70;;;11.70;99.90;;;;;;5110860;28;20448;-65
2023/01/04 17:40:44;;;;;;;3.23;1.30;;;11.70;99.90;;;;;;5110787;28;20476;-65
2023/01/04 17:43:11;;;;;;;1.10;1.10;;;11.70;99.90;;;;;;5110974;28;20854;-65
2023/01/04 17:45:37;;;;;;;0.80;0.80;;;11.70;99.90;;;;;;5110333;28;20944;-65
2023/01/04 17:48:05;;;;;;;0.97;0.97;;;11.80;99.90;;;;;;5110479;28;20472;-65
2023/01/04 17:50:32;;;;;;;0.80;0.80;;;11.70;99.90;;;;;;5110636;28;20448;-65
2023/01/04 17:52:59;;;;;;;1.00;0.90;;;11.70;99.90;;;;;;5110351;28;20993;-66
2023/01/04 17:55:26;;;;;;;1.00;1.00;;;11.70;99.90;;;;;;5110752;28;20490;-66
2023/01/04 17:57:54;;;;;;;1.00;1.00;;;11.70;99.90;;;;;;5110254;28;20988;-65
2023/01/04 18:00:21;;;;;;;1.20;1.00;;;11.70;99.90;;;;;;5096199;28;20494;-65
2023/01/04 18:02:47;;;;;;;0.83;0.83;;;11.70;99.90;;;;;;5096335;28;20976;-65
2023/01/04 18:05:14;;;;;;;1.00;1.00;;;11.70;99.90;;;;;;5096588;28;21013;-65
2023/01/04 18:07:41;;;;;;;1.03;1.00;;;11.70;99.90;;;;;;5096552;28;20472;-66
2023/01/04 18:10:11;;;;;;;0.80;0.80;;;11.70;99.90;;;;;;5096390;28;20460;-65
2023/01/04 18:12:38;;;;;;;0.80;0.80;;;11.70;99.90;;;;;;5096525;28;20473;-65
2023/01/04 18:15:08;;;;;;;1.27;0.90;;;11.70;99.90;;;;;;5096313;28;20952;-65
2023/01/04 18:17:35;;;;;;;0.83;0.83;;;11.70;99.90;;;;;;5097196;28;20433;-66
2023/01/04 18:20:01;;;;;;;0.90;0.90;;;11.60;99.90;;;;;;5097476;28;20476;-66
2023/01/04 18:22:28;;;;;;;0.90;0.90;;;11.60;99.90;;;;;;5096872;28;20514;-66
2023/01/04 18:24:55;;;;;;;0.80;0.80;;;11.60;99.90;;;;;;5097192;28;20438;-65
2023/01/04 18:27:22;;;;;;;1.13;1.10;;;11.60;99.90;;;;;;5097139;28;20506;-65
2023/01/04 18:29:48;;;;;;;0.93;0.80;;;11.60;99.90;;;;;;5098969;28;20445;-65
2023/01/04 18:32:16;;;;;;;0.80;0.80;;;11.60;99.90;;;;;;5099172;28;20476;-65
2023/01/04 18:34:43;;;;;;;0.60;0.60;;;11.50;99.90;;;;;;5100824;28;20440;-66
2023/01/04 18:37:09;;;;;;;0.60;0.60;;;11.50;99.90;;;;;;5103390;28;20458;-66
2023/01/04 18:39:36;;;;;;;0.90;0.80;;;11.60;99.90;;;;;;5104184;28;20989;-66
2023/01/04 18:42:03;;;;;;;0.80;0.80;;;11.50;99.90;;;;;;5103992;28;20473;-66
2023/01/04 18:44:30;;;;;;;0.80;0.80;;;11.50;99.90;;;;;;5102399;28;20457;-67
2023/01/04 18:46:56;;;;;;;0.80;0.80;;;11.40;99.90;;;;;;5100974;28;20457;-67
2023/01/04 18:49:24;;;;;;;0.80;0.80;;;11.40;99.90;;;;;;5097148;28;20468;-66
2023/01/04 18:51:51;;;;;;;0.90;0.70;;;11.40;99.90;;;;;;5096463;28;20972;-66
2023/01/04 18:54:19;;;;;;;1.33;0.80;;;11.40;99.90;;;;;;5096186;28;20453;-66
2023/01/04 18:56:47;;;;;;;0.80;0.80;;;11.40;99.90;;;;;;5096015;28;20455;-66
2023/01/04 18:59:15;;;;;;;0.80;0.80;;;11.50;99.90;;;;;;5096664;28;20502;-67
2023/01/04 19:01:42;;;;;;;0.80;0.80;;;11.50;99.90;;;;;;5095815;28;20526;-67
2023/01/04 19:04:10;;;;;;;1.40;1.27;;;11.40;99.90;;;;;;5095949;28;20498;-67
2023/01/04 19:06:38;;;;;;;1.40;1.40;;;11.40;99.90;;;;;;5096276;28;20456;-67
2023/01/04 19:09:05;;;;;;;0.63;0.63;;;11.40;99.90;;;;;;5095832;28;20669;-66
2023/01/04 19:11:31;;;;;;;1.07;0.53;;;11.30;99.90;;;;;;5094770;28;20469;-67
2023/01/04 19:13:58;;;;;;;1.00;1.00;;;11.30;99.90;;;;;;5095953;28;20433;-67
2023/01/04 19:16:28;;;;;;;0.60;0.60;;;11.40;99.90;;;;;;5095612;28;20498;-67
2023/01/04 19:18:56;;;;;;;1.00;1.00;;;11.40;99.90;;;;;;5096736;28;20449;-66
2023/01/04 19:21:22;;;;;;;0.67;0.67;;;11.30;99.90;;;;;;5096456;28;20864;-67
2023/01/04 19:23:51;;;;;;;0.77;0.77;;;11.30;99.90;;;;;;5095646;28;21034;-67
2023/01/04 19:26:18;;;;;;;1.00;1.00;;;11.30;99.90;;;;;;5096261;28;20453;-67
2023/01/04 19:28:44;;;;;;;0.80;0.80;;;11.30;99.90;;;;;;5095549;28;20872;-65
2023/01/04 19:31:13;;;;;;;0.93;0.93;;;11.30;99.90;;;;;;5095654;28;20883;-65
2023/01/04 19:33:40;;;;;;;0.73;0.73;;;11.40;99.90;;;;;;5096148;28;20495;-66
2023/01/04 19:36:08;;;;;;;0.60;0.60;;;11.40;99.90;;;;;;5095158;28;20437;-65
2023/01/04 19:38:34;;;;;;;0.60;0.60;;;11.40;99.90;;;;;;5095331;28;20433;-66
2023/01/04 19:41:02;;;;;;;0.73;0.60;;;11.40;99.90;;;;;;5095001;28;20530;-65
2023/01/04 19:43:29;;;;;;;0.87;0.63;;;11.40;99.90;;;;;;5095562;28;20438;-66
2023/01/04 19:45:56;;;;;;;0.60;0.60;;;11.30;99.90;;;;;;5095676;28;20920;-66
2023/01/04 19:48:23;;;;;;;0.60;0.60;;;11.30;99.90;;;;;;5094419;28;20530;-66
2023/01/04 19:50:49;;;;;;;0.60;0.60;;;11.40;99.90;;;;;;5094553;28;20519;-66
2023/01/04 19:53:16;;;;;;;0.67;0.67;;;11.40;99.90;;;;;;5094608;28;20450;-66
2023/01/04 19:55:43;;;;;;;0.80;0.70;;;11.30;99.90;;;;;;5094537;28;20449;-66
2023/01/04 19:58:11;;;;;;;1.00;1.00;;;11.30;99.90;;;;;;5095360;28;20433;-67
2023/01/04 20:00:38;;;;;;;0.80;0.80;;;11.40;99.90;;;;;;5099980;28;20524;-66
2023/01/04 20:03:05;;;;;;;0.50;0.50;;;11.40;99.90;;;;;;5102500;28;20434;-67
2023/01/04 20:05:34;;;;;;;0.90;0.90;;;11.40;99.90;;;;;;5102961;28;20480;-68
2023/01/04 20:08:01;;;;;;;1.03;1.00;;;11.40;99.90;;;;;;5102467;28;20453;-66
2023/01/04 20:10:28;;;;;;;1.00;1.00;;;11.30;99.90;;;;;;5096176;28;20460;-67
2023/01/04 20:12:56;;;;;;;1.10;1.07;;;11.30;99.90;;;;;;5101692;28;20507;-67
2023/01/04 20:15:24;;;;;;;1.60;1.50;;;11.30;99.90;;;;;;5102837;28;20436;-66
2023/01/04 20:17:53;;;;;;;1.50;0.90;;;11.30;99.90;;;;;;5103668;28;20455;-65
2023/01/04 20:20:20;;;;;;;0.93;0.93;;;11.30;99.90;;;;;;5102895;28;20449;-67
2023/01/04 20:22:48;;;;;;;1.20;1.20;;;11.30;99.90;;;;;;5103438;28;20568;-67
2023/01/04 20:25:15;;;;;;;1.10;1.10;;;11.40;99.90;;;;;;5102866;28;20434;-66
2023/01/04 20:27:42;;;;;;;1.20;1.20;;;11.40;99.90;;;;;;5096625;28;20540;-65
2023/01/04 20:30:10;;;;;;;0.77;0.77;;;11.30;99.90;;;;;;5097808;28;20461;-66
2023/01/04 20:32:39;;;;;;;1.13;1.03;;;11.30;99.90;;;;;;5102276;28;20495;-65
2023/01/04 20:35:06;;;;;;;1.10;1.00;;;11.30;99.90;;;;;;5103531;28;20506;-70
2023/01/04 20:37:33;;;;;;;1.30;1.30;;;11.20;99.90;;;;;;5099396;28;20445;-67
2023/01/04 20:40:00;;;;;;;0.80;0.80;;;11.20;99.90;;;;;;5099388;28;20449;-67
2023/01/04 20:45:12;;;;;;;0.80;0.80;;;11.30;99.90;;;;;;5101675;28;20431;-65
2023/01/04 20:47:40;;;;;;;0.70;0.70;;;11.20;99.90;;;;;;5101282;28;20457;-67
2023/01/04 20:50:11;;;;;;;0.70;0.70;;;11.10;99.90;;;;;;5094375;28;20850;-66
2023/01/04 20:52:38;;;;;;;0.60;0.60;;;11.10;99.90;;;;;;5094033;28;20850;-65
2023/01/04 20:55:06;;;;;;;1.70;0.90;;;11.20;99.90;;;;;;5093864;28;20932;-66
2023/01/04 20:57:32;;;;;;;0.80;0.80;;;11.20;99.90;;;;;;5094401;28;20438;-67
2023/01/04 20:59:59;;;;;;;0.83;0.83;;;11.30;99.90;;;;;;5094004;28;20446;-66
2023/01/04 21:02:26;;;;;;;1.13;0.77;;;11.30;99.90;;;;;;5094197;28;20496;-66
2023/01/04 21:04:54;;;;;;;1.07;0.97;;;11.30;99.90;;;;;;5094118;28;20838;-66
2023/01/04 21:07:20;;;;;;;0.73;0.73;;;11.30;99.90;;;;;;5094465;28;20437;-66
2023/01/04 21:09:47;;;;;;;1.07;1.07;;;11.40;99.90;;;;;;5093820;28;20499;-66
2023/01/04 21:12:14;;;;;;;0.83;0.83;;;11.50;99.90;;;;;;5094020;28;20477;-66
2023/01/04 21:14:41;;;;;;;1.30;1.20;;;11.40;99.90;;;;;;5093580;28;20467;-66
2023/01/04 21:17:08;;;;;;;0.87;0.87;;;11.40;99.90;;;;;;5093719;28;20487;-67
2023/01/04 21:19:35;;;;;;;0.93;0.83;;;11.40;99.90;;;;;;5093236;28;20456;-67
2023/01/04 21:22:03;;;;;;;1.10;1.10;;;11.40;99.90;;;;;;5093307;28;20882;-66
2023/01/04 21:24:32;;;;;;;1.50;1.00;;;11.40;99.90;;;;;;5093625;28;20457;-65
2023/01/04 21:26:58;;;;;;;0.90;0.90;;;11.40;99.90;;;;;;5093171;28;20552;-65
2023/01/04 21:29:26;;;;;;;0.87;0.80;;;11.40;99.90;;;;;;5093260;28;20478;-67
2023/01/04 21:31:53;;;;;;;0.83;0.83;;;11.50;99.90;;;;;;5093101;28;20505;-66
2023/01/04 21:34:20;;;;;;;0.90;0.90;;;11.50;99.90;;;;;;5102101;28;20454;-66
2023/01/04 21:36:47;;;;;;;0.80;0.80;;;11.50;99.90;;;;;;5103941;28;20440;-66
2023/01/04 21:39:15;;;;;;;1.30;1.20;;;11.50;99.90;;;;;;5099299;28;20815;-66
2023/01/04 21:41:42;;;;;;;1.50;1.07;;;11.50;99.90;;;;;;5103323;28;20484;-66
2023/01/04 21:44:09;;;;;;;1.90;1.00;;;11.60;99.90;;;;;;5102912;28;20859;-67
2023/01/04 21:46:37;;;;;;;1.83;1.30;;;11.60;99.90;;;;;;5105458;28;20948;-66
2023/01/04 21:49:05;;;;;;;0.80;0.80;;;11.70;99.90;;;;;;5106349;28;20552;-66
2023/01/04 21:51:33;;;;;;;0.90;0.90;;;11.70;99.90;;;;;;5100808;28;20530;-66
2023/01/04 21:54:00;;;;;;;0.50;0.50;;;11.70;99.90;;;;;;5105413;28;20865;-66
2023/01/04 21:56:30;;;;;;;0.90;0.90;;;11.70;99.90;;;;;;5106130;28;20498;-66
2023/01/04 21:58:58;;;;;;;0.67;0.67;;;11.80;99.90;;;;;;5105881;28;20448;-66
2023/01/04 22:01:27;;;;;;;0.90;0.90;;;11.80;99.90;;;;;;5107432;28;20469;-66
2023/01/04 22:03:55;;;;;;;0.90;0.90;;;11.90;99.90;;;;;;5105575;28;20456;-66
